sensor_id;sensor_type;location;lat;lon;timestamp;pressure;altitude;pressure_sealevel;temperature;humidity
46412;BME280;32113;42.012;24.870;2023-03-20T00:00:24;99483.72;;;10.87;46.81
46412;BME280;32113;42.012;24.870;2023-03-20T00:02:51;99476.06;;;10.77;47.01
46412;BME280;32113;42.012;24.870;2023-03-20T00:05:21;99479.50;;;10.73;47.37
46412;BME280;32113;42.012;24.870;2023-03-20T00:07:48;99471.81;;;10.75;46.83
46412;BME280;32113;42.012;24.870;2023-03-20T00:10:16;99464.09;;;10.73;46.87
46412;BME280;32113;42.012;24.870;2023-03-20T00:12:42;99462.41;;;10.71;47.17
46412;BME280;32113;42.012;24.870;2023-03-20T00:17:51;99453.84;;;10.73;47.47
46412;BME280;32113;42.012;24.870;2023-03-20T00:20:17;99442.69;;;10.74;47.14
46412;BME280;32113;42.012;24.870;2023-03-20T00:22:42;99430.75;;;10.73;47.39
46412;BME280;32113;42.012;24.870;2023-03-20T00:25:16;99430.69;;;10.83;46.82
46412;BME280;32113;42.012;24.870;2023-03-20T00:27:43;99424.72;;;10.76;46.88
46412;BME280;32113;42.012;24.870;2023-03-20T00:30:19;99426.44;;;10.74;46.64
46412;BME280;32113;42.012;24.870;2023-03-20T00:32:46;99429.97;;;10.56;46.70
46412;BME280;32113;42.012;24.870;2023-03-20T00:35:22;99426.59;;;10.44;47.40
46412;BME280;32113;42.012;24.870;2023-03-20T00:37:49;99420.56;;;10.41;47.56
46412;BME280;32113;42.012;24.870;2023-03-20T00:40:15;99426.56;;;10.41;47.19
46412;BME280;32113;42.012;24.870;2023-03-20T00:42:41;99421.44;;;10.41;47.69
46412;BME280;32113;42.012;24.870;2023-03-20T00:45:11;99423.16;;;10.33;47.58
46412;BME280;32113;42.012;24.870;2023-03-20T00:47:38;99420.59;;;10.36;47.82
46412;BME280;32113;42.012;24.870;2023-03-20T00:50:13;99414.63;;;10.28;47.67
46412;BME280;32113;42.012;24.870;2023-03-20T00:52:40;99417.22;;;10.21;47.75
46412;BME280;32113;42.012;24.870;2023-03-20T00:55:05;99408.66;;;10.21;48.42
46412;BME280;32113;42.012;24.870;2023-03-20T00:57:39;99411.22;;;10.21;47.78
46412;BME280;32113;42.012;24.870;2023-03-20T01:00:19;99414.66;;;10.21;47.80
46412;BME280;32113;42.012;24.870;2023-03-20T01:02:46;99408.69;;;10.10;48.20
46412;BME280;32113;42.012;24.870;2023-03-20T01:05:12;99400.16;;;10.05;48.18
46412;BME280;32113;42.012;24.870;2023-03-20T01:07:38;99398.47;;;10.07;48.35
46412;BME280;32113;42.012;24.870;2023-03-20T01:10:04;99406.13;;;10.10;48.29
46412;BME280;32113;42.012;24.870;2023-03-20T01:12:30;99407.88;;;10.11;48.24
46412;BME280;32113;42.012;24.870;2023-03-20T01:14:56;99399.34;;;10.06;48.49
46412;BME280;32113;42.012;24.870;2023-03-20T01:17:24;99401.91;;;10.03;48.43
46412;BME280;32113;42.012;24.870;2023-03-20T01:19:50;99402.72;;;10.03;48.34
46412;BME280;32113;42.012;24.870;2023-03-20T01:22:15;99408.72;;;10.05;48.43
46412;BME280;32113;42.012;24.870;2023-03-20T01:24:44;99404.44;;;9.99;48.83
46412;BME280;32113;42.012;24.870;2023-03-20T01:27:27;99404.47;;;9.95;49.09
46412;BME280;32113;42.012;24.870;2023-03-20T01:29:52;99401.06;;;9.94;48.71
46412;BME280;32113;42.012;24.870;2023-03-20T01:32:18;99407.03;;;9.96;48.92
46412;BME280;32113;42.012;24.870;2023-03-20T01:34:44;99406.19;;;9.96;48.39
46412;BME280;32113;42.012;24.870;2023-03-20T01:37:23;99402.75;;;10.00;48.88
46412;BME280;32113;42.012;24.870;2023-03-20T01:39:49;99401.91;;;10.01;48.83
46412;BME280;32113;42.012;24.870;2023-03-20T01:42:15;99394.19;;;10.10;48.84
46412;BME280;32113;42.012;24.870;2023-03-20T01:44:41;99396.75;;;10.12;48.95
46412;BME280;32113;42.012;24.870;2023-03-20T01:47:16;99396.75;;;10.07;48.88
46412;BME280;32113;42.012;24.870;2023-03-20T01:52:49;99395.06;;;9.94;49.43
46412;BME280;32113;42.012;24.870;2023-03-20T01:55:16;99395.06;;;9.95;49.32
46412;BME280;32113;42.012;24.870;2023-03-20T01:57:42;99388.22;;;9.91;49.68
46412;BME280;32113;42.012;24.870;2023-03-20T02:00:10;99393.38;;;9.94;49.21
46412;BME280;32113;42.012;24.870;2023-03-20T02:02:38;99392.50;;;9.95;49.48
46412;BME280;32113;42.012;24.870;2023-03-20T02:05:08;99389.97;;;9.92;49.42
46412;BME280;32113;42.012;24.870;2023-03-20T02:07:35;99389.13;;;9.84;49.54
46412;BME280;32113;42.012;24.870;2023-03-20T02:10:08;99392.53;;;9.77;50.33
46412;BME280;32113;42.012;24.870;2023-03-20T02:12:35;99389.97;;;9.78;50.27
46412;BME280;32113;42.012;24.870;2023-03-20T02:15:02;99384.84;;;9.81;50.27
46412;BME280;32113;42.012;24.870;2023-03-20T02:17:27;99396.81;;;9.82;50.45
46412;BME280;32113;42.012;24.870;2023-03-20T02:28:36;99392.53;;;9.77;50.77
46412;BME280;32113;42.012;24.870;2023-03-20T02:37:29;99393.44;;;9.62;50.92
46412;BME280;32113;42.012;24.870;2023-03-20T02:45:36;99383.16;;;9.55;51.80
46412;BME280;32113;42.012;24.870;2023-03-20T02:50:43;99387.44;;;9.64;51.32
46412;BME280;32113;42.012;24.870;2023-03-20T02:53:27;99377.19;;;9.69;51.13
46412;BME280;32113;42.012;24.870;2023-03-20T02:58:56;99374.59;;;9.67;50.84
46412;BME280;32113;42.012;24.870;2023-03-20T03:01:50;99372.06;;;9.64;51.21
46412;BME280;32113;42.012;24.870;2023-03-20T03:04:21;99373.78;;;9.56;51.32
46412;BME280;32113;42.012;24.870;2023-03-20T03:06:49;99373.78;;;9.48;52.10
46412;BME280;32113;42.012;24.870;2023-03-20T03:09:23;99367.81;;;9.48;51.82
46412;BME280;32113;42.012;24.870;2023-03-20T03:12:18;99370.38;;;9.51;51.88
46412;BME280;32113;42.012;24.870;2023-03-20T03:14:52;99366.97;;;9.53;52.17
46412;BME280;32113;42.012;24.870;2023-03-20T03:17:22;99372.94;;;9.51;52.01
46412;BME280;32113;42.012;24.870;2023-03-20T03:19:55;99363.56;;;9.50;51.75
46412;BME280;32113;42.012;24.870;2023-03-20T03:22:22;99366.97;;;9.45;52.04
46412;BME280;32113;42.012;24.870;2023-03-20T03:24:52;99362.69;;;9.38;53.01
46412;BME280;32113;42.012;24.870;2023-03-20T03:27:23;99364.41;;;9.35;52.75
46412;BME280;32113;42.012;24.870;2023-03-20T03:30:03;99369.53;;;9.24;53.97
46412;BME280;32113;42.012;24.870;2023-03-20T03:32:34;99359.28;;;9.16;54.49
46412;BME280;32113;42.012;24.870;2023-03-20T03:35:03;99365.25;;;9.13;54.01
46412;BME280;32113;42.012;24.870;2023-03-20T03:41:24;99366.94;;;9.11;54.28
46412;BME280;32113;42.012;24.870;2023-03-20T03:43:33;99367.81;;;9.07;54.66
46412;BME280;32113;42.012;24.870;2023-03-20T03:46:06;99365.25;;;9.12;54.49
46412;BME280;32113;42.012;24.870;2023-03-20T03:48:38;99371.22;;;9.01;54.74
46412;BME280;32113;42.012;24.870;2023-03-20T03:51:14;99366.09;;;9.03;54.30
46412;BME280;32113;42.012;24.870;2023-03-20T03:53:45;99370.34;;;8.99;54.35
46412;BME280;32113;42.012;24.870;2023-03-20T03:56:15;99366.94;;;8.96;54.28
46412;BME280;32113;42.012;24.870;2023-03-20T03:58:47;99370.38;;;8.96;54.46
46412;BME280;32113;42.012;24.870;2023-03-20T04:01:14;99364.41;;;9.00;54.94
46412;BME280;32113;42.012;24.870;2023-03-20T04:03:52;99365.22;;;9.01;54.05
46412;BME280;32113;42.012;24.870;2023-03-20T04:06:18;99361.84;;;9.06;54.06
46412;BME280;32113;42.012;24.870;2023-03-20T04:08:44;99367.81;;;9.04;54.08
46412;BME280;32113;42.012;24.870;2023-03-20T04:11:21;99368.63;;;8.90;54.67
46412;BME280;32113;42.012;24.870;2023-03-20T04:13:49;99366.06;;;8.87;54.27
46412;BME280;32113;42.012;24.870;2023-03-20T04:16:16;99360.94;;;8.87;55.09
46412;BME280;32113;42.012;24.870;2023-03-20T04:18:43;99373.78;;;8.93;55.07
46412;BME280;32113;42.012;24.870;2023-03-20T04:21:09;99372.91;;;8.88;55.46
46412;BME280;32113;42.012;24.870;2023-03-20T04:23:35;99380.59;;;8.87;55.56
46412;BME280;32113;42.012;24.870;2023-03-20T04:26:01;99380.56;;;8.79;55.71
46412;BME280;32113;42.012;24.870;2023-03-20T04:28:27;99390.78;;;8.80;56.61
46412;BME280;32113;42.012;24.870;2023-03-20T04:30:58;99382.28;;;8.80;56.23
46412;BME280;32113;42.012;24.870;2023-03-20T04:33:25;99379.72;;;8.89;56.19
46412;BME280;32113;42.012;24.870;2023-03-20T04:35:50;99387.41;;;8.96;55.92
46412;BME280;32113;42.012;24.870;2023-03-20T04:38:17;99385.72;;;9.04;55.18
46412;BME280;32113;42.012;24.870;2023-03-20T04:40:43;99376.34;;;9.09;55.11
46412;BME280;32113;42.012;24.870;2023-03-20T04:43:09;99372.94;;;9.13;55.14
46412;BME280;32113;42.012;24.870;2023-03-20T04:45:35;99372.94;;;9.16;54.64
46412;BME280;32113;42.012;24.870;2023-03-20T04:48:00;99376.34;;;9.17;54.61
46412;BME280;32113;42.012;24.870;2023-03-20T04:50:26;99372.06;;;9.11;54.34
46412;BME280;32113;42.012;24.870;2023-03-20T04:52:52;99375.47;;;9.10;54.75
46412;BME280;32113;42.012;24.870;2023-03-20T04:55:17;99378.06;;;9.12;54.41
46412;BME280;32113;42.012;24.870;2023-03-20T04:57:43;99377.19;;;9.08;54.51
46412;BME280;32113;42.012;24.870;2023-03-20T05:00:09;99379.75;;;9.08;54.21
46412;BME280;32113;42.012;24.870;2023-03-20T05:02:35;99383.16;;;9.09;54.56
46412;BME280;32113;42.012;24.870;2023-03-20T05:05:00;99378.88;;;9.06;54.73
46412;BME280;32113;42.012;24.870;2023-03-20T05:07:26;99378.88;;;9.06;54.99
46412;BME280;32113;42.012;24.870;2023-03-20T05:09:51;99384.88;;;9.11;55.01
46412;BME280;32113;42.012;24.870;2023-03-20T05:12:16;99389.16;;;9.12;54.71
46412;BME280;32113;42.012;24.870;2023-03-20T05:14:42;99381.47;;;9.18;54.92
46412;BME280;32113;42.012;24.870;2023-03-20T05:17:07;99384.88;;;9.17;54.97
46412;BME280;32113;42.012;24.870;2023-03-20T05:19:33;99388.31;;;9.26;55.19
46412;BME280;32113;42.012;24.870;2023-03-20T05:21:58;99383.19;;;9.30;54.75
46412;BME280;32113;42.012;24.870;2023-03-20T05:24:23;99392.56;;;9.33;55.17
46412;BME280;32113;42.012;24.870;2023-03-20T05:26:49;99387.47;;;9.36;55.12
46412;BME280;32113;42.012;24.870;2023-03-20T05:29:15;99386.59;;;9.43;54.81
46412;BME280;32113;42.012;24.870;2023-03-20T05:31:40;99384.88;;;9.49;54.55
46412;BME280;32113;42.012;24.870;2023-03-20T05:34:06;99387.44;;;9.52;54.48
46412;BME280;32113;42.012;24.870;2023-03-20T05:36:31;99391.72;;;9.54;54.44
46412;BME280;32113;42.012;24.870;2023-03-20T05:38:57;99384.91;;;9.56;54.57
46412;BME280;32113;42.012;24.870;2023-03-20T05:41:22;99390.00;;;9.66;54.59
46412;BME280;32113;42.012;24.870;2023-03-20T05:43:48;99386.56;;;9.73;53.79
46412;BME280;32113;42.012;24.870;2023-03-20T05:46:13;99378.88;;;9.84;54.02
46412;BME280;32113;42.012;24.870;2023-03-20T05:48:38;99378.88;;;9.87;53.68
46412;BME280;32113;42.012;24.870;2023-03-20T05:51:04;99381.41;;;9.92;53.63
46412;BME280;32113;42.012;24.870;2023-03-20T05:53:30;99382.28;;;9.92;53.50
46412;BME280;32113;42.012;24.870;2023-03-20T05:55:55;99382.25;;;9.98;53.38
46412;BME280;32113;42.012;24.870;2023-03-20T05:58:21;99382.22;;;10.11;53.01
46412;BME280;32113;42.012;24.870;2023-03-20T06:00:46;99377.94;;;10.18;52.93
46412;BME280;32113;42.012;24.870;2023-03-20T06:03:11;99381.28;;;10.28;52.68
46412;BME280;32113;42.012;24.870;2023-03-20T06:05:37;99375.28;;;10.32;52.62
46412;BME280;32113;42.012;24.870;2023-03-20T06:08:03;99373.56;;;10.35;52.74
46412;BME280;32113;42.012;24.870;2023-03-20T06:10:29;99367.56;;;10.43;52.12
46412;BME280;32113;42.012;24.870;2023-03-20T06:12:55;99371.84;;;10.47;52.58
46412;BME280;32113;42.012;24.870;2023-03-20T06:15:21;99376.13;;;10.49;52.02
46412;BME280;32113;42.012;24.870;2023-03-20T06:17:47;99376.06;;;10.59;52.48
46412;BME280;32113;42.012;24.870;2023-03-20T06:20:12;99381.16;;;10.67;52.26
46412;BME280;32113;42.012;24.870;2023-03-20T06:22:37;99381.16;;;10.67;52.44
46412;BME280;32113;42.012;24.870;2023-03-20T06:25:04;99371.75;;;10.66;52.71
46412;BME280;32113;42.012;24.870;2023-03-20T06:27:30;99381.16;;;10.68;53.19
46412;BME280;32113;42.012;24.870;2023-03-20T06:29:55;99389.66;;;10.76;53.24
46412;BME280;32113;42.012;24.870;2023-03-20T06:32:21;99386.25;;;10.74;53.33
46412;BME280;32113;42.012;24.870;2023-03-20T06:34:46;99381.97;;;10.73;53.59
46412;BME280;32113;42.012;24.870;2023-03-20T06:37:12;99386.22;;;10.77;53.23
46412;BME280;32113;42.012;24.870;2023-03-20T06:39:38;99387.06;;;10.81;52.98
46412;BME280;32113;42.012;24.870;2023-03-20T06:42:03;99377.66;;;10.78;53.22
46412;BME280;32113;42.012;24.870;2023-03-20T06:44:28;99383.59;;;10.88;52.61
46412;BME280;32113;42.012;24.870;2023-03-20T06:46:54;99386.13;;;10.93;52.42
46412;BME280;32113;42.012;24.870;2023-03-20T06:49:20;99384.44;;;10.90;52.62
46412;BME280;32113;42.012;24.870;2023-03-20T06:51:46;99387.88;;;10.91;52.45
46412;BME280;32113;42.012;24.870;2023-03-20T06:54:12;99380.13;;;10.97;52.30
46412;BME280;32113;42.012;24.870;2023-03-20T06:56:38;99382.69;;;11.00;52.46
46412;BME280;32113;42.012;24.870;2023-03-20T06:59:03;99380.91;;;11.07;52.31
46412;BME280;32113;42.012;24.870;2023-03-20T07:01:29;99388.53;;;11.18;52.61
46412;BME280;32113;42.012;24.870;2023-03-20T07:03:54;99385.03;;;11.28;52.77
46412;BME280;32113;42.012;24.870;2023-03-20T07:06:20;99377.28;;;11.35;52.52
46412;BME280;32113;42.012;24.870;2023-03-20T07:08:45;99378.91;;;11.45;52.05
46412;BME280;32113;42.012;24.870;2023-03-20T07:11:11;99375.50;;;11.43;51.54
46412;BME280;32113;42.012;24.870;2023-03-20T07:13:36;99373.72;;;11.50;51.64
46412;BME280;32113;42.012;24.870;2023-03-20T07:16:03;99372.81;;;11.55;51.75
46412;BME280;32113;42.012;24.870;2023-03-20T07:18:29;99371.00;;;11.67;51.22
46412;BME280;32113;42.012;24.870;2023-03-20T07:20:59;99371.84;;;11.67;51.93
46412;BME280;32113;42.012;24.870;2023-03-20T07:23:26;99372.63;;;11.74;51.28
46412;BME280;32113;42.012;24.870;2023-03-20T07:25:52;99365.78;;;11.76;51.67
46412;BME280;32113;42.012;24.870;2023-03-20T07:28:17;99356.22;;;11.85;50.41
46412;BME280;32113;42.012;24.870;2023-03-20T07:30:43;99363.00;;;11.95;50.49
46412;BME280;32113;42.012;24.870;2023-03-20T07:33:08;99357.78;;;12.00;50.65
46412;BME280;32113;42.012;24.870;2023-03-20T07:35:34;99356.00;;;12.09;50.34
46412;BME280;32113;42.012;24.870;2023-03-20T07:37:59;99360.25;;;12.14;50.01
46412;BME280;32113;42.012;24.870;2023-03-20T07:40:25;99363.63;;;12.19;49.77
46412;BME280;32113;42.012;24.870;2023-03-20T07:42:50;99354.13;;;12.24;49.28
46412;BME280;32113;42.012;24.870;2023-03-20T07:45:16;99356.59;;;12.33;48.87
46412;BME280;32113;42.012;24.870;2023-03-20T07:47:43;99351.28;;;12.46;48.05
46412;BME280;32113;42.012;24.870;2023-03-20T07:50:09;99356.22;;;12.61;48.28
46412;BME280;32113;42.012;24.870;2023-03-20T07:52:35;99348.38;;;12.69;46.90
46412;BME280;32113;42.012;24.870;2023-03-20T07:55:00;99349.19;;;12.71;46.54
46412;BME280;32113;42.012;24.870;2023-03-20T07:57:26;99356.78;;;12.81;46.79
46412;BME280;32113;42.012;24.870;2023-03-20T07:59:51;99356.75;;;12.84;46.78
46412;BME280;32113;42.012;24.870;2023-03-20T08:02:17;99339.53;;;12.87;46.31
46412;BME280;32113;42.012;24.870;2023-03-20T08:04:43;99335.16;;;12.93;46.72
46412;BME280;32113;42.012;24.870;2023-03-20T08:07:09;99339.31;;;13.03;46.59
46412;BME280;32113;42.012;24.870;2023-03-20T08:09:35;99335.69;;;13.15;46.68
46412;BME280;32113;42.012;24.870;2023-03-20T08:12:00;99344.84;;;13.32;45.93
46412;BME280;32113;42.012;24.870;2023-03-20T08:14:26;99343.00;;;13.38;45.16
46412;BME280;32113;42.012;24.870;2023-03-20T08:16:51;99342.09;;;13.43;45.09
46412;BME280;32113;42.012;24.870;2023-03-20T08:19:17;99335.13;;;13.46;44.56
46412;BME280;32113;42.012;24.870;2023-03-20T08:21:42;99329.06;;;13.52;44.44
46412;BME280;32113;42.012;24.870;2023-03-20T08:24:08;99334.03;;;13.63;45.16
46412;BME280;32113;42.012;24.870;2023-03-20T08:26:34;99337.22;;;13.76;44.25
46412;BME280;32113;42.012;24.870;2023-03-20T08:29:00;99338.06;;;13.78;44.12
46412;BME280;32113;42.012;24.870;2023-03-20T08:31:25;99331.03;;;13.85;44.34
46412;BME280;32113;42.012;24.870;2023-03-20T08:33:51;99335.34;;;13.86;44.00
46412;BME280;32113;42.012;24.870;2023-03-20T08:36:17;99339.59;;;13.88;43.88
46412;BME280;32113;42.012;24.870;2023-03-20T08:38:45;99331.75;;;13.93;44.05
46412;BME280;32113;42.012;24.870;2023-03-20T08:41:11;99338.66;;;13.92;43.92
46412;BME280;32113;42.012;24.870;2023-03-20T08:43:36;99336.88;;;13.95;43.63
46412;BME280;32113;42.012;24.870;2023-03-20T08:46:02;99325.47;;;14.05;43.23
46412;BME280;32113;42.012;24.870;2023-03-20T08:48:27;99331.19;;;14.21;42.48
46412;BME280;32113;42.012;24.870;2023-03-20T08:50:53;99322.91;;;14.05;42.91
46412;BME280;32113;42.012;24.870;2023-03-20T08:53:18;99327.72;;;14.22;42.93
46412;BME280;32113;42.012;24.870;2023-03-20T08:55:51;99331.69;;;14.39;42.86
46412;BME280;32113;42.012;24.870;2023-03-20T08:58:18;99333.28;;;14.44;42.83
46412;BME280;32113;42.012;24.870;2023-03-20T09:00:44;99330.31;;;14.62;42.98
46412;BME280;32113;42.012;24.870;2023-03-20T09:03:18;99327.22;;;14.85;41.80
46412;BME280;32113;42.012;24.870;2023-03-20T09:05:45;99325.06;;;15.04;41.29
46412;BME280;32113;42.012;24.870;2023-03-20T09:08:12;99321.19;;;15.21;40.40
46412;BME280;32113;42.012;24.870;2023-03-20T09:10:37;99317.22;;;15.42;40.55
46412;BME280;32113;42.012;24.870;2023-03-20T09:13:03;99312.38;;;15.63;40.21
46412;BME280;32113;42.012;24.870;2023-03-20T09:15:28;99308.31;;;15.86;40.21
46412;BME280;32113;42.012;24.870;2023-03-20T09:17:53;99297.00;;;16.20;39.35
46412;BME280;32113;42.012;24.870;2023-03-20T09:20:19;99300.38;;;16.52;38.66
46412;BME280;32113;42.012;24.870;2023-03-20T09:22:44;99302.22;;;16.76;37.54
46412;BME280;32113;42.012;24.870;2023-03-20T09:25:11;99297.31;;;16.95;37.18
46412;BME280;32113;42.012;24.870;2023-03-20T09:27:38;99290.59;;;17.16;36.85
46412;BME280;32113;42.012;24.870;2023-03-20T09:30:08;99290.22;;;17.27;36.35
46412;BME280;32113;42.012;24.870;2023-03-20T09:32:34;99291.28;;;17.47;36.26
46412;BME280;32113;42.012;24.870;2023-03-20T09:35:00;99285.53;;;17.63;35.97
46412;BME280;32113;42.012;24.870;2023-03-20T09:37:26;99277.94;;;17.82;35.74
46412;BME280;32113;42.012;24.870;2023-03-20T09:39:51;99277.31;;;17.99;35.48
46412;BME280;32113;42.012;24.870;2023-03-20T09:47:50;99266.88;;;18.47;34.60
46412;BME280;32113;42.012;24.870;2023-03-20T09:50:26;99260.09;;;18.65;34.49
46412;BME280;32113;42.012;24.870;2023-03-20T09:55:26;99259.88;;;18.92;34.15
46412;BME280;32113;42.012;24.870;2023-03-20T09:58:03;99266.31;;;19.04;34.11
46412;BME280;32113;42.012;24.870;2023-03-20T10:00:33;99248.78;;;19.09;34.35
46412;BME280;32113;42.012;24.870;2023-03-20T10:03:05;99247.56;;;19.18;34.42
46412;BME280;32113;42.012;24.870;2023-03-20T10:05:36;99245.28;;;19.31;34.30
46412;BME280;32113;42.012;24.870;2023-03-20T10:08:04;99241.28;;;19.43;34.41
46412;BME280;32113;42.012;24.870;2023-03-20T10:15:54;99217.75;;;19.85;33.85
46412;BME280;32113;42.012;24.870;2023-03-20T10:18:26;99220.75;;;19.94;33.59
46412;BME280;32113;42.012;24.870;2023-03-20T10:21:00;99224.06;;;20.00;33.76
46412;BME280;32113;42.012;24.870;2023-03-20T10:23:31;99224.50;;;20.08;33.96
46412;BME280;32113;42.012;24.870;2023-03-20T10:26:02;99213.03;;;20.12;32.99
46412;BME280;32113;42.012;24.870;2023-03-20T10:38:54;99195.19;;;20.04;33.86
46412;BME280;32113;42.012;24.870;2023-03-20T10:41:29;99194.19;;;20.07;33.67
46412;BME280;32113;42.012;24.870;2023-03-20T10:43:58;99183.41;;;20.15;33.84
46412;BME280;32113;42.012;24.870;2023-03-20T10:46:26;99184.31;;;20.14;33.18
46412;BME280;32113;42.012;24.870;2023-03-20T10:51:45;99179.41;;;19.88;33.18
46412;BME280;32113;42.012;24.870;2023-03-20T10:54:36;99163.41;;;19.96;33.50
46412;BME280;32113;42.012;24.870;2023-03-20T10:57:05;99168.28;;;20.04;34.02
46412;BME280;32113;42.012;24.870;2023-03-20T10:59:36;99155.44;;;20.18;33.12
46412;BME280;32113;42.012;24.870;2023-03-20T11:02:13;99151.47;;;20.29;33.02
46412;BME280;32113;42.012;24.870;2023-03-20T11:04:39;99145.56;;;20.43;32.84
46412;BME280;32113;42.012;24.870;2023-03-20T11:10:05;99126.94;;;20.68;32.13
46412;BME280;32113;42.012;24.870;2023-03-20T11:15:20;99127.69;;;20.88;32.05
46412;BME280;32113;42.012;24.870;2023-03-20T11:17:56;99118.66;;;20.95;32.31
46412;BME280;32113;42.012;24.870;2023-03-20T11:20:22;99101.84;;;21.01;31.84
46412;BME280;32113;42.012;24.870;2023-03-20T11:22:48;99097.38;;;21.03;31.80
46412;BME280;32113;42.012;24.870;2023-03-20T11:25:29;99100.09;;;21.18;32.11
46412;BME280;32113;42.012;24.870;2023-03-20T11:28:17;99101.34;;;21.26;31.64
46412;BME280;32113;42.012;24.870;2023-03-20T11:30:43;99090.00;;;21.27;32.27
46412;BME280;32113;42.012;24.870;2023-03-20T11:33:09;99085.44;;;21.31;31.81
46412;BME280;32113;42.012;24.870;2023-03-20T11:35:34;99084.03;;;21.42;31.78
46412;BME280;32113;42.012;24.870;2023-03-20T11:38:29;99070.47;;;21.51;32.15
46412;BME280;32113;42.012;24.870;2023-03-20T11:40:55;99078.88;;;21.72;31.81
46412;BME280;32113;42.012;24.870;2023-03-20T11:43:24;99071.56;;;21.79;31.19
46412;BME280;32113;42.012;24.870;2023-03-20T11:45:58;99070.28;;;21.86;31.32
46412;BME280;32113;42.012;24.870;2023-03-20T11:48:38;99065.16;;;21.85;30.35
46412;BME280;32113;42.012;24.870;2023-03-20T11:51:09;99055.72;;;21.82;30.88
46412;BME280;32113;42.012;24.870;2023-03-20T11:56:20;99058.50;;;21.63;30.44
46412;BME280;32113;42.012;24.870;2023-03-20T11:58:57;99052.91;;;21.69;29.87
46412;BME280;32113;42.012;24.870;2023-03-20T12:01:25;99043.03;;;21.60;29.91
46412;BME280;32113;42.012;24.870;2023-03-20T12:06:46;99041.59;;;21.54;30.17
46412;BME280;32113;42.012;24.870;2023-03-20T12:11:58;99030.16;;;21.40;30.41
46412;BME280;32113;42.012;24.870;2023-03-20T12:20:21;99025.72;;;21.57;30.83
46412;BME280;32113;42.012;24.870;2023-03-20T12:22:50;99034.34;;;21.59;30.25
46412;BME280;32113;42.012;24.870;2023-03-20T12:25:26;99025.16;;;21.52;30.93
46412;BME280;32113;42.012;24.870;2023-03-20T12:30:31;99018.59;;;21.77;30.29
46412;BME280;32113;42.012;24.870;2023-03-20T12:33:09;99029.94;;;21.76;29.87
46412;BME280;32113;42.012;24.870;2023-03-20T12:35:46;99008.41;;;21.72;30.04
46412;BME280;32113;42.012;24.870;2023-03-20T12:38:22;99010.66;;;21.78;31.17
46412;BME280;32113;42.012;24.870;2023-03-20T12:40:54;99003.69;;;21.94;30.17
46412;BME280;32113;42.012;24.870;2023-03-20T12:43:31;98993.56;;;22.03;29.59
46412;BME280;32113;42.012;24.870;2023-03-20T12:46:10;98992.22;;;21.96;29.99
46412;BME280;32113;42.012;24.870;2023-03-20T12:48:55;98990.94;;;22.03;29.50
46412;BME280;32113;42.012;24.870;2023-03-20T12:51:54;98986.53;;;22.04;29.47
46412;BME280;32113;42.012;24.870;2023-03-20T12:54:32;98985.34;;;21.95;28.20
46412;BME280;32113;42.012;24.870;2023-03-20T12:57:17;98977.66;;;21.92;28.62
46412;BME280;32113;42.012;24.870;2023-03-20T13:08:59;98974.56;;;21.85;28.61
46412;BME280;32113;42.012;24.870;2023-03-20T13:20:24;98974.16;;;21.93;27.85
46412;BME280;32113;42.012;24.870;2023-03-20T13:25:11;98969.13;;;22.19;28.00
46412;BME280;32113;42.012;24.870;2023-03-20T13:27:50;98966.50;;;22.19;27.36
46412;BME280;32113;42.012;24.870;2023-03-20T13:30:25;98959.78;;;22.15;27.22
46412;BME280;32113;42.012;24.870;2023-03-20T13:38:41;98954.84;;;22.39;26.89
46412;BME280;32113;42.012;24.870;2023-03-20T13:41:09;98949.63;;;22.39;27.00
46412;BME280;32113;42.012;24.870;2023-03-20T13:43:39;98946.38;;;22.36;27.11
46412;BME280;32113;42.012;24.870;2023-03-20T13:46:17;98942.72;;;22.38;26.42
46412;BME280;32113;42.012;24.870;2023-03-20T13:48:45;98943.19;;;22.45;27.10
46412;BME280;32113;42.012;24.870;2023-03-20T13:53:56;98936.00;;;22.49;27.25
46412;BME280;32113;42.012;24.870;2023-03-20T14:07:34;98921.78;;;22.82;27.13
46412;BME280;32113;42.012;24.870;2023-03-20T14:10:32;98925.56;;;22.91;26.97
46412;BME280;32113;42.012;24.870;2023-03-20T14:13:00;98918.94;;;23.00;26.98
46412;BME280;32113;42.012;24.870;2023-03-20T14:15:30;98909.00;;;23.05;27.23
46412;BME280;32113;42.012;24.870;2023-03-20T14:17:57;98905.97;;;23.11;26.98
46412;BME280;32113;42.012;24.870;2023-03-20T14:22:55;98910.25;;;23.12;26.76
46412;BME280;32113;42.012;24.870;2023-03-20T14:25:22;98901.78;;;23.08;26.61
46412;BME280;32113;42.012;24.870;2023-03-20T14:27:53;98910.56;;;23.07;26.49
46412;BME280;32113;42.012;24.870;2023-03-20T14:35:49;98888.84;;;22.92;26.66
46412;BME280;32113;42.012;24.870;2023-03-20T14:38:45;98886.47;;;22.75;27.06
46412;BME280;32113;42.012;24.870;2023-03-20T14:41:21;98885.66;;;22.74;27.14
46412;BME280;32113;42.012;24.870;2023-03-20T14:43:53;98878.56;;;22.62;27.25
46412;BME280;32113;42.012;24.870;2023-03-20T14:46:30;98879.63;;;22.44;27.48
46412;BME280;32113;42.012;24.870;2023-03-20T14:49:03;98878.59;;;22.47;27.15
46412;BME280;32113;42.012;24.870;2023-03-20T14:51:44;98873.53;;;22.44;27.33
46412;BME280;32113;42.012;24.870;2023-03-20T14:54:38;98869.16;;;22.44;27.20
46412;BME280;32113;42.012;24.870;2023-03-20T14:57:30;98869.75;;;22.35;26.87
46412;BME280;32113;42.012;24.870;2023-03-20T14:59:56;98878.50;;;22.34;26.92
46412;BME280;32113;42.012;24.870;2023-03-20T15:02:26;98873.00;;;22.24;27.04
46412;BME280;32113;42.012;24.870;2023-03-20T15:04:53;98870.31;;;22.26;27.03
46412;BME280;32113;42.012;24.870;2023-03-20T15:09:47;98860.03;;;22.23;27.47
46412;BME280;32113;42.012;24.870;2023-03-20T15:12:16;98860.78;;;22.25;27.16
46412;BME280;32113;42.012;24.870;2023-03-20T15:14:52;98858.09;;;22.26;29.02
46412;BME280;32113;42.012;24.870;2023-03-20T15:17:36;98852.69;;;22.15;28.03